Time;durP1;ratioP1;P1;durP2;ratioP2;P2;SDS_P1;SDS_P2;PMS_P1;PMS_P2;Temp;Humidity;BMP_temperature;BMP_pressure;BME280_temperature;BME280_humidity;BME280_pressure;Samples;Min_cycle;Max_cycle;Signal;HPM_P1;HPM_P2
2024/03/12 00:01:44;;;;;;;36.93;28.83;;;6.70;99.90;;;;;;5030486;28;20543;-68
2024/03/12 00:04:12;;;;;;;34.70;28.37;;;6.70;99.90;;;;;;5015026;28;20483;-69
2024/03/12 00:06:42;;;;;;;34.03;27.87;;;6.70;99.90;;;;;;5002171;28;20480;-68
2024/03/12 00:09:11;;;;;;;38.23;28.87;;;6.70;99.90;;;;;;5006518;28;20503;-68
2024/03/12 00:11:39;;;;;;;35.87;27.50;;;6.70;99.90;;;;;;5006358;28;22215;-67
2024/03/12 00:14:07;;;;;;;38.20;30.17;;;6.70;99.90;;;;;;5005792;28;20520;-68
2024/03/12 00:16:36;;;;;;;42.60;28.47;;;6.70;99.90;;;;;;5009013;28;20475;-68
2024/03/12 00:19:05;;;;;;;39.63;30.33;;;6.70;99.90;;;;;;5006381;28;20492;-69
2024/03/12 00:21:35;;;;;;;38.87;29.20;;;6.70;99.90;;;;;;5002212;28;20883;-69
2024/03/12 00:24:04;;;;;;;38.03;30.23;;;6.70;99.90;;;;;;5005293;28;20491;-68
2024/03/12 00:26:33;;;;;;;36.60;28.67;;;6.70;99.90;;;;;;4997442;28;20541;-67
2024/03/12 00:29:01;;;;;;;38.07;29.47;;;6.80;99.90;;;;;;5005635;28;20542;-66
2024/03/12 00:31:31;;;;;;;36.63;29.53;;;6.80;99.90;;;;;;5005585;28;21665;-67
2024/03/12 00:34:00;;;;;;;37.50;28.50;;;6.80;99.90;;;;;;5001370;28;20492;-66
2024/03/12 00:36:29;;;;;;;39.40;29.97;;;6.80;99.90;;;;;;5006393;28;20956;-66
2024/03/12 00:38:57;;;;;;;40.07;29.10;;;6.80;99.90;;;;;;5003849;28;20494;-66
2024/03/12 00:41:25;;;;;;;44.07;31.50;;;6.90;99.90;;;;;;5004309;28;20587;-66
2024/03/12 00:43:55;;;;;;;37.40;29.57;;;6.80;99.90;;;;;;5000488;28;20565;-66
2024/03/12 00:46:24;;;;;;;42.50;30.87;;;6.80;99.90;;;;;;5007563;28;20475;-65
2024/03/12 00:48:53;;;;;;;40.07;31.50;;;6.80;99.90;;;;;;5007705;28;20523;-65
2024/03/12 00:51:22;;;;;;;37.43;29.47;;;6.90;99.90;;;;;;5005658;28;20582;-67
2024/03/12 00:53:50;;;;;;;38.90;29.73;;;6.90;99.90;;;;;;5004764;28;21315;-66
2024/03/12 00:56:18;;;;;;;37.00;28.60;;;6.90;99.90;;;;;;5004842;28;20563;-66
2024/03/12 00:58:46;;;;;;;41.83;30.90;;;7.00;99.90;;;;;;5003419;28;20475;-66
2024/03/12 01:01:16;;;;;;;36.80;29.03;;;6.90;99.90;;;;;;5007398;28;20521;-67
2024/03/12 01:03:46;;;;;;;36.77;29.87;;;6.90;99.90;;;;;;4999548;28;20669;-65
2024/03/12 01:06:14;;;;;;;37.70;29.63;;;6.90;99.90;;;;;;5004168;28;20472;-68
2024/03/12 01:08:42;;;;;;;39.70;31.63;;;6.90;99.90;;;;;;5005205;28;20474;-66
2024/03/12 01:11:12;;;;;;;38.00;30.30;;;6.90;99.90;;;;;;5005661;28;21498;-66
2024/03/12 01:13:41;;;;;;;38.47;29.60;;;6.90;99.90;;;;;;5005911;28;20507;-66
2024/03/12 01:16:09;;;;;;;35.40;26.90;;;6.90;99.90;;;;;;5003111;28;20480;-65
2024/03/12 01:18:38;;;;;;;38.00;29.80;;;7.00;99.90;;;;;;5004184;28;20486;-67
2024/03/12 01:21:08;;;;;;;40.43;28.83;;;6.90;99.90;;;;;;5006208;28;20527;-66
2024/03/12 01:23:36;;;;;;;35.03;27.43;;;6.90;99.90;;;;;;5004946;28;20487;-66
2024/03/12 01:26:06;;;;;;;36.90;28.53;;;7.00;99.90;;;;;;5006389;28;20514;-67
2024/03/12 01:28:35;;;;;;;36.13;28.37;;;6.90;99.90;;;;;;5003412;28;20479;-66
2024/03/12 01:31:03;;;;;;;36.00;29.43;;;6.90;99.90;;;;;;5005921;28;20488;-71
2024/03/12 01:33:32;;;;;;;40.50;30.00;;;6.90;99.90;;;;;;5001621;28;20511;-67
2024/03/12 01:36:18;;;;;;;32.17;27.30;;;6.90;99.90;;;;;;5003172;28;20471;-66
2024/03/12 01:38:48;;;;;;;36.20;28.53;;;6.90;99.90;;;;;;5002246;28;21027;-66
2024/03/12 01:41:17;;;;;;;35.97;27.83;;;6.90;99.90;;;;;;5005534;28;20505;-66
2024/03/12 01:43:59;;;;;;;37.30;28.33;;;6.90;99.90;;;;;;5001514;28;20491;-66
2024/03/12 01:46:28;;;;;;;37.67;30.37;;;6.90;99.90;;;;;;5006533;28;20630;-66
2024/03/12 01:48:58;;;;;;;36.30;28.83;;;6.80;99.90;;;;;;5003606;28;20513;-68
2024/03/12 01:51:28;;;;;;;38.93;28.27;;;6.80;99.90;;;;;;5005870;28;20491;-66
2024/03/12 01:53:56;;;;;;;36.00;27.37;;;6.80;99.90;;;;;;5000436;28;20477;-68
2024/03/12 01:56:25;;;;;;;34.23;27.70;;;6.70;99.90;;;;;;5002750;28;20679;-66
2024/03/12 01:58:53;;;;;;;37.33;28.83;;;6.70;99.90;;;;;;4999452;28;20567;-66
2024/03/12 02:01:22;;;;;;;37.90;29.23;;;6.70;99.90;;;;;;5006755;28;20503;-66
2024/03/12 02:03:51;;;;;;;36.03;29.40;;;6.70;99.90;;;;;;5003370;28;20514;-68
2024/03/12 02:06:20;;;;;;;36.63;28.50;;;6.60;99.90;;;;;;5003971;28;20538;-69
2024/03/12 02:08:50;;;;;;;34.80;27.13;;;6.60;99.90;;;;;;5001192;28;20476;-70
2024/03/12 02:11:18;;;;;;;36.63;28.00;;;6.60;99.90;;;;;;5008307;28;20903;-68
2024/03/12 02:13:49;;;;;;;40.50;28.93;;;6.60;99.90;;;;;;5011634;28;20511;-70
2024/03/12 02:16:17;;;;;;;35.87;27.47;;;6.50;99.90;;;;;;5027578;28;20564;-68
2024/03/12 02:18:45;;;;;;;37.33;27.37;;;6.50;99.90;;;;;;5026595;28;20467;-69
2024/03/12 02:21:13;;;;;;;34.87;27.97;;;6.40;99.90;;;;;;5026830;28;20502;-68
2024/03/12 02:23:43;;;;;;;39.13;29.17;;;6.40;99.90;;;;;;5017342;28;21194;-68
2024/03/12 02:26:11;;;;;;;37.27;27.70;;;6.40;99.90;;;;;;5003075;28;20563;-70
2024/03/12 02:28:39;;;;;;;35.30;28.00;;;6.30;99.90;;;;;;5002934;28;20505;-69
2024/03/12 02:31:07;;;;;;;36.57;29.23;;;6.30;99.90;;;;;;5001809;28;20574;-69
2024/03/12 02:33:36;;;;;;;37.23;28.50;;;6.30;99.90;;;;;;5001101;28;20484;-68
2024/03/12 02:36:06;;;;;;;35.77;28.77;;;6.20;99.90;;;;;;5003137;28;20610;-68
2024/03/12 02:38:37;;;;;;;33.83;27.57;;;6.20;99.90;;;;;;5006278;28;20531;-68
2024/03/12 02:41:10;;;;;;;33.37;27.10;;;6.20;99.90;;;;;;5003299;28;21111;-68
2024/03/12 02:43:38;;;;;;;35.60;27.73;;;6.10;99.90;;;;;;5002726;28;20486;-70
2024/03/12 02:46:08;;;;;;;36.60;28.77;;;6.10;99.90;;;;;;5003018;28;20574;-68
2024/03/12 02:48:37;;;;;;;33.23;26.73;;;6.10;99.90;;;;;;5003634;28;20537;-69
2024/03/12 02:51:08;;;;;;;33.97;27.20;;;6.00;99.90;;;;;;5006603;28;20487;-68
2024/03/12 02:53:37;;;;;;;37.50;27.67;;;6.00;99.90;;;;;;5003597;28;20476;-68
2024/03/12 02:56:07;;;;;;;32.30;26.80;;;6.00;99.90;;;;;;5002639;28;20488;-68
2024/03/12 02:58:37;;;;;;;33.20;26.90;;;6.00;99.90;;;;;;5001750;28;20467;-68
2024/03/12 03:01:05;;;;;;;31.90;26.87;;;5.90;99.90;;;;;;5008806;28;20591;-67
2024/03/12 03:03:34;;;;;;;33.87;26.60;;;5.90;99.90;;;;;;5002096;28;20566;-69
2024/03/12 03:06:02;;;;;;;33.37;27.40;;;5.80;99.90;;;;;;5005492;28;20477;-68
2024/03/12 03:08:31;;;;;;;33.97;26.00;;;5.80;99.90;;;;;;5003637;28;20601;-69
2024/03/12 03:10:59;;;;;;;31.83;26.67;;;5.70;99.90;;;;;;5007814;28;20964;-69
2024/03/12 03:13:29;;;;;;;30.93;25.33;;;5.70;99.90;;;;;;5008499;28;21036;-70
2024/03/12 03:15:57;;;;;;;30.00;25.97;;;5.70;99.90;;;;;;5005795;28;20557;-67
2024/03/12 03:18:27;;;;;;;31.37;26.03;;;5.70;99.90;;;;;;5007908;28;20471;-69
2024/03/12 03:20:55;;;;;;;29.80;25.40;;;5.70;99.90;;;;;;5009158;28;20509;-68
2024/03/12 03:23:24;;;;;;;30.27;24.90;;;5.70;99.90;;;;;;5005260;28;20497;-68
2024/03/12 03:25:52;;;;;;;33.77;26.20;;;5.60;99.90;;;;;;5002293;28;20476;-70
2024/03/12 03:28:20;;;;;;;30.80;26.30;;;5.60;99.90;;;;;;5009452;28;20472;-68
2024/03/12 03:30:51;;;;;;;29.63;26.43;;;5.60;99.90;;;;;;5015362;28;20590;-68
2024/03/12 03:33:19;;;;;;;28.53;25.40;;;5.60;99.90;;;;;;5011162;28;20478;-68
2024/03/12 03:35:47;;;;;;;31.07;25.57;;;5.50;99.90;;;;;;5014476;28;20558;-68
2024/03/12 03:38:15;;;;;;;29.73;25.90;;;5.50;99.90;;;;;;5008118;28;20473;-68
2024/03/12 03:40:43;;;;;;;30.00;24.97;;;5.50;99.90;;;;;;5009846;28;20914;-68
2024/03/12 03:43:11;;;;;;;31.60;24.67;;;5.40;99.90;;;;;;5008844;28;20472;-68
2024/03/12 03:45:39;;;;;;;29.67;24.40;;;5.40;99.90;;;;;;5002288;28;20468;-68
2024/03/12 03:48:09;;;;;;;30.80;26.00;;;5.40;99.90;;;;;;5005164;28;20479;-69
2024/03/12 03:50:37;;;;;;;30.47;25.10;;;5.30;99.90;;;;;;5005868;28;20483;-68
2024/03/12 03:53:08;;;;;;;32.73;25.93;;;5.30;99.90;;;;;;5009385;28;20486;-68
2024/03/12 03:55:38;;;;;;;30.10;24.40;;;5.30;99.90;;;;;;5006449;28;20476;-69
2024/03/12 03:58:07;;;;;;;29.37;23.90;;;5.30;99.90;;;;;;5006470;28;20479;-68
2024/03/12 04:00:35;;;;;;;28.50;25.40;;;5.30;99.90;;;;;;5005742;28;20490;-67
2024/03/12 04:03:04;;;;;;;29.43;25.00;;;5.20;99.90;;;;;;5005428;28;20992;-68
2024/03/12 04:05:35;;;;;;;30.50;24.20;;;5.20;99.90;;;;;;5006653;28;20528;-68
2024/03/12 04:08:03;;;;;;;29.07;24.33;;;5.20;99.90;;;;;;5007757;28;20483;-69
2024/03/12 04:10:31;;;;;;;29.07;23.87;;;5.10;99.90;;;;;;5006275;28;20553;-68
2024/03/12 04:12:59;;;;;;;28.90;24.80;;;5.10;99.90;;;;;;5007390;28;20565;-69
2024/03/12 04:15:28;;;;;;;31.10;25.80;;;5.10;99.90;;;;;;5024832;28;20467;-68
2024/03/12 04:17:57;;;;;;;28.30;24.60;;;5.00;99.90;;;;;;5029470;28;20557;-68
2024/03/12 04:20:26;;;;;;;29.60;25.37;;;5.00;99.90;;;;;;5029488;28;20528;-68
2024/03/12 04:22:55;;;;;;;31.87;24.67;;;5.00;99.90;;;;;;5029321;28;20504;-68
2024/03/12 04:25:24;;;;;;;29.00;23.37;;;5.00;99.90;;;;;;5007007;28;20581;-68
2024/03/12 04:27:53;;;;;;;29.80;24.33;;;5.00;99.90;;;;;;5010681;28;20476;-71
2024/03/12 04:30:21;;;;;;;28.80;23.47;;;5.00;99.90;;;;;;5007791;28;20507;-68
2024/03/12 04:32:49;;;;;;;30.43;25.10;;;5.00;99.90;;;;;;5004306;28;20831;-69
2024/03/12 04:35:17;;;;;;;29.90;24.87;;;4.90;99.90;;;;;;5007220;28;20475;-69
2024/03/12 04:37:45;;;;;;;29.90;24.60;;;5.00;99.90;;;;;;5006945;28;20538;-68
2024/03/12 04:40:15;;;;;;;28.57;24.73;;;4.90;99.90;;;;;;5002245;28;20881;-68
2024/03/12 04:42:45;;;;;;;31.97;24.20;;;4.90;99.90;;;;;;5005458;28;20492;-69
2024/03/12 04:45:14;;;;;;;32.70;24.83;;;4.90;99.90;;;;;;5005193;28;20566;-68
2024/03/12 04:47:42;;;;;;;29.23;24.10;;;4.90;99.90;;;;;;5010177;28;20471;-68
2024/03/12 04:50:13;;;;;;;29.30;23.73;;;4.90;99.90;;;;;;5006327;28;20496;-69
2024/03/12 04:52:42;;;;;;;28.23;23.00;;;4.90;99.90;;;;;;5005622;28;20551;-70
2024/03/12 04:55:10;;;;;;;27.87;24.03;;;4.90;99.90;;;;;;5005631;28;20496;-68
2024/03/12 04:57:40;;;;;;;25.93;22.60;;;4.90;99.90;;;;;;5003972;28;20530;-69
2024/03/12 05:00:13;;;;;;;31.03;24.07;;;4.90;99.90;;;;;;5001832;28;20484;-68
2024/03/12 05:02:43;;;;;;;28.53;23.83;;;4.90;99.90;;;;;;5005279;28;20582;-68
2024/03/12 05:05:13;;;;;;;27.63;24.00;;;4.90;99.90;;;;;;5009669;28;20471;-70
2024/03/12 05:07:42;;;;;;;28.80;23.47;;;4.90;99.90;;;;;;5008156;28;20478;-68
2024/03/12 05:10:11;;;;;;;26.53;22.73;;;4.90;99.90;;;;;;5012143;28;20911;-68
2024/03/12 05:12:41;;;;;;;25.80;22.97;;;4.90;99.90;;;;;;5008045;28;20957;-69
2024/03/12 05:15:10;;;;;;;25.67;22.40;;;4.90;99.90;;;;;;5023497;28;20583;-67
2024/03/12 05:17:39;;;;;;;26.47;23.57;;;4.90;99.90;;;;;;5024673;28;20474;-68
2024/03/12 05:20:09;;;;;;;26.13;23.30;;;5.00;99.90;;;;;;5027097;28;20494;-68
2024/03/12 05:22:37;;;;;;;27.60;23.10;;;5.00;99.90;;;;;;5022762;28;20505;-68
2024/03/12 05:25:09;;;;;;;27.73;23.57;;;5.00;99.90;;;;;;5004411;28;20842;-68
2024/03/12 05:27:38;;;;;;;27.10;23.30;;;5.00;99.90;;;;;;5004119;28;20479;-70
2024/03/12 05:30:14;;;;;;;26.27;22.90;;;5.00;99.90;;;;;;5008196;28;20484;-68
2024/03/12 05:32:47;;;;;;;25.83;22.90;;;5.00;99.90;;;;;;5003233;28;20472;-68
2024/03/12 05:35:21;;;;;;;27.23;21.77;;;5.00;99.90;;;;;;5007469;28;20479;-68
2024/03/12 05:38:02;;;;;;;27.03;22.70;;;5.00;99.90;;;;;;5007840;28;20839;-70
2024/03/12 05:40:42;;;;;;;26.40;23.20;;;5.00;99.90;;;;;;5005770;28;20647;-69
2024/03/12 05:48:49;;;;;;;28.40;24.00;;;5.00;99.90;;;;;;5009573;28;20479;-69
2024/03/12 05:51:18;;;;;;;25.00;22.17;;;5.10;99.90;;;;;;5006694;28;20495;-68
2024/03/12 05:53:47;;;;;;;24.97;22.23;;;5.10;99.90;;;;;;5004503;28;20494;-68
2024/03/12 05:56:15;;;;;;;25.70;22.83;;;5.10;99.90;;;;;;5007338;28;20558;-68
2024/03/12 05:58:46;;;;;;;26.30;23.17;;;5.10;99.90;;;;;;5007915;28;20530;-68
2024/03/12 06:01:16;;;;;;;26.47;23.60;;;5.10;99.90;;;;;;5002194;28;20499;-68
2024/03/12 06:03:45;;;;;;;27.23;23.30;;;5.10;99.90;;;;;;4998023;28;20869;-68
2024/03/12 06:06:13;;;;;;;26.00;22.53;;;5.10;99.90;;;;;;5007467;28;20985;-68
2024/03/12 06:08:41;;;;;;;26.07;22.93;;;5.10;99.90;;;;;;5008631;28;20476;-68
2024/03/12 06:11:09;;;;;;;28.70;24.33;;;5.10;99.90;;;;;;5008620;28;20491;-68
2024/03/12 06:13:38;;;;;;;25.90;22.60;;;5.10;99.90;;;;;;5006356;28;20533;-68
2024/03/12 06:16:07;;;;;;;26.20;22.20;;;5.10;99.90;;;;;;5003854;28;21027;-70
2024/03/12 06:18:36;;;;;;;28.57;24.23;;;5.20;99.90;;;;;;5006274;28;20494;-70
2024/03/12 06:21:07;;;;;;;25.67;22.50;;;5.20;99.90;;;;;;5004385;28;20493;-70
2024/03/12 06:23:35;;;;;;;26.63;22.83;;;5.20;99.90;;;;;;5009599;28;20530;-68
2024/03/12 06:26:06;;;;;;;28.33;22.73;;;5.30;99.90;;;;;;5027115;28;20467;-69
2024/03/12 06:28:35;;;;;;;27.00;23.80;;;5.30;99.90;;;;;;5033423;28;21005;-68
2024/03/12 06:31:04;;;;;;;27.13;23.70;;;5.30;99.90;;;;;;5031644;28;20490;-68
2024/03/12 06:33:33;;;;;;;26.70;22.57;;;5.30;99.90;;;;;;5019606;28;20494;-68
2024/03/12 06:36:03;;;;;;;26.63;23.17;;;5.30;99.90;;;;;;5010831;28;20536;-68
2024/03/12 06:38:31;;;;;;;28.03;23.40;;;5.30;99.90;;;;;;5007918;28;20690;-68
2024/03/12 06:40:59;;;;;;;26.57;22.30;;;5.30;99.90;;;;;;5015185;28;20494;-68
2024/03/12 06:43:27;;;;;;;25.67;22.80;;;5.40;99.90;;;;;;5013998;28;21048;-69
2024/03/12 06:45:55;;;;;;;28.67;23.87;;;5.40;99.90;;;;;;5010931;28;20968;-69
2024/03/12 06:48:24;;;;;;;25.03;22.33;;;5.40;99.90;;;;;;5012774;28;20490;-68
2024/03/12 06:50:52;;;;;;;27.13;23.13;;;5.40;99.90;;;;;;5008889;28;21127;-68
2024/03/12 06:53:25;;;;;;;26.83;23.23;;;5.40;99.90;;;;;;5006632;28;20550;-68
2024/03/12 06:55:53;;;;;;;27.43;23.40;;;5.40;99.90;;;;;;5012251;28;20498;-68
2024/03/12 06:58:21;;;;;;;26.30;22.00;;;5.50;99.90;;;;;;5018216;28;20476;-68
2024/03/12 07:00:50;;;;;;;29.97;25.37;;;5.50;99.90;;;;;;5009690;28;20496;-68
2024/03/12 07:03:21;;;;;;;27.57;23.90;;;5.50;99.90;;;;;;5012119;28;20992;-69
2024/03/12 07:05:50;;;;;;;26.73;22.53;;;5.50;99.90;;;;;;5016648;28;20503;-68
2024/03/12 07:08:21;;;;;;;27.07;23.53;;;5.50;99.90;;;;;;5016239;28;20856;-67
2024/03/12 07:10:51;;;;;;;26.37;22.80;;;5.50;99.90;;;;;;5011662;28;20495;-68
2024/03/12 07:13:23;;;;;;;26.20;23.07;;;5.50;99.90;;;;;;5011259;28;20483;-69
2024/03/12 07:15:51;;;;;;;26.13;22.67;;;5.50;99.90;;;;;;5016390;28;20973;-67
2024/03/12 07:18:20;;;;;;;28.50;23.43;;;5.60;99.90;;;;;;5017750;28;20957;-67
2024/03/12 07:20:52;;;;;;;28.13;22.57;;;5.60;99.90;;;;;;5015467;28;20658;-68
2024/03/12 07:23:20;;;;;;;25.57;22.73;;;5.70;99.90;;;;;;5014508;28;20557;-67
2024/03/12 07:25:49;;;;;;;26.90;22.90;;;5.70;99.90;;;;;;5019519;28;20475;-67
2024/03/12 07:28:19;;;;;;;25.77;22.20;;;5.70;99.90;;;;;;5017361;28;20585;-66
2024/03/12 07:30:52;;;;;;;25.37;22.67;;;5.80;99.90;;;;;;5012384;28;20491;-66
2024/03/12 07:33:20;;;;;;;27.00;23.40;;;5.80;99.90;;;;;;5017696;28;20588;-68
2024/03/12 07:35:48;;;;;;;25.57;22.30;;;5.80;99.90;;;;;;5019212;28;20536;-67
2024/03/12 07:38:17;;;;;;;25.63;22.83;;;5.80;99.90;;;;;;5014494;28;20563;-67
2024/03/12 07:40:45;;;;;;;27.40;23.20;;;5.90;99.90;;;;;;5011658;28;20510;-67
2024/03/12 07:43:14;;;;;;;28.13;24.63;;;5.90;99.90;;;;;;5017603;28;20480;-67
2024/03/12 07:45:48;;;;;;;26.70;23.03;;;5.90;99.90;;;;;;5018740;28;21006;-67
2024/03/12 07:48:16;;;;;;;26.53;23.23;;;5.90;99.90;;;;;;5014081;28;20464;-68
2024/03/12 07:50:45;;;;;;;26.30;22.10;;;6.00;99.90;;;;;;5016350;28;21353;-67
2024/03/12 07:53:13;;;;;;;28.00;23.27;;;6.00;99.90;;;;;;5009860;28;20483;-67
2024/03/12 07:55:42;;;;;;;26.43;23.17;;;6.00;99.90;;;;;;5011785;28;20582;-66
2024/03/12 07:58:10;;;;;;;27.77;23.27;;;6.10;99.90;;;;;;5010059;28;21258;-67
2024/03/12 08:00:39;;;;;;;26.20;22.60;;;6.10;99.90;;;;;;5012722;28;20565;-67
2024/03/12 08:03:09;;;;;;;26.03;23.20;;;6.10;99.90;;;;;;5009490;28;20518;-67
2024/03/12 08:05:37;;;;;;;27.23;22.13;;;6.20;99.90;;;;;;5017611;28;21102;-67
2024/03/12 08:08:07;;;;;;;25.00;22.30;;;6.20;99.90;;;;;;5018522;28;20923;-68
2024/03/12 08:10:35;;;;;;;27.67;22.63;;;6.20;99.90;;;;;;5011742;28;20617;-68
2024/03/12 08:13:05;;;;;;;26.83;21.87;;;6.30;99.90;;;;;;5010895;28;21113;-67
2024/03/12 08:15:34;;;;;;;28.17;22.90;;;6.30;99.90;;;;;;5013966;28;20529;-67
2024/03/12 08:18:02;;;;;;;24.00;20.90;;;6.40;99.90;;;;;;5015190;28;20472;-67
2024/03/12 08:20:45;;;;;;;25.77;21.13;;;6.40;99.90;;;;;;5018251;28;20582;-67
2024/03/12 08:23:14;;;;;;;23.00;20.50;;;6.40;99.90;;;;;;5013449;28;20502;-67
2024/03/12 08:25:42;;;;;;;23.60;21.10;;;6.50;99.90;;;;;;5015639;28;20832;-67
2024/03/12 08:28:23;;;;;;;26.27;22.00;;;6.50;99.90;;;;;;5013353;28;20634;-68
2024/03/12 08:30:51;;;;;;;28.07;22.10;;;6.50;99.90;;;;;;5015232;28;21102;-67
2024/03/12 08:33:20;;;;;;;23.10;20.50;;;6.60;99.90;;;;;;5015696;28;20476;-67
2024/03/12 08:35:50;;;;;;;24.60;19.90;;;6.70;99.90;;;;;;5010316;28;20863;-68
2024/03/12 08:38:19;;;;;;;26.80;20.63;;;6.60;99.90;;;;;;5013175;28;20557;-66
2024/03/12 08:40:47;;;;;;;27.43;19.90;;;6.70;99.90;;;;;;5013190;28;20553;-67
2024/03/12 08:43:16;;;;;;;23.80;19.83;;;6.80;99.90;;;;;;5012402;28;20903;-68
2024/03/12 08:45:44;;;;;;;24.80;20.50;;;6.80;99.90;;;;;;5016971;28;21313;-68
2024/03/12 08:48:12;;;;;;;22.90;19.73;;;6.90;99.90;;;;;;5010911;28;21046;-67
2024/03/12 08:50:40;;;;;;;24.63;19.20;;;6.90;99.90;;;;;;5012313;28;20621;-67
2024/03/12 08:53:11;;;;;;;26.70;19.70;;;6.90;99.90;;;;;;5007217;28;20495;-68
2024/03/12 08:55:43;;;;;;;30.50;21.63;;;7.00;99.90;;;;;;5013480;28;20483;-68
2024/03/12 08:58:11;;;;;;;25.40;20.97;;;7.10;99.90;;;;;;5013913;28;20589;-66
2024/03/12 09:00:41;;;;;;;27.50;19.90;;;7.10;99.90;;;;;;5014589;28;20504;-67
2024/03/12 09:03:09;;;;;;;24.47;20.63;;;7.10;99.90;;;;;;5011478;28;21047;-67
2024/03/12 09:05:37;;;;;;;30.33;20.47;;;7.10;99.90;;;;;;5011042;28;20475;-67
2024/03/12 09:08:06;;;;;;;26.27;19.60;;;7.20;99.90;;;;;;5018105;28;20479;-66
2024/03/12 09:10:36;;;;;;;24.00;19.83;;;7.20;99.90;;;;;;5016105;28;20557;-68
2024/03/12 09:13:04;;;;;;;24.10;19.57;;;7.20;99.90;;;;;;5018524;28;20497;-68
2024/03/12 09:15:33;;;;;;;24.80;19.10;;;7.30;99.90;;;;;;5012879;28;20919;-68
2024/03/12 09:18:04;;;;;;;24.27;19.20;;;7.40;99.90;;;;;;5016592;28;20471;-67
2024/03/12 09:20:33;;;;;;;23.17;19.23;;;7.40;99.90;;;;;;5018621;28;20877;-66
2024/03/12 09:23:01;;;;;;;23.43;18.60;;;7.50;99.90;;;;;;5013362;28;20479;-66
2024/03/12 09:25:30;;;;;;;23.70;17.90;;;7.50;99.90;;;;;;5009415;28;20499;-65
2024/03/12 09:28:01;;;;;;;23.07;18.00;;;7.50;99.90;;;;;;5010678;28;20978;-65
2024/03/12 09:30:29;;;;;;;24.63;17.47;;;7.60;99.90;;;;;;5010328;28;20491;-66
2024/03/12 09:32:57;;;;;;;23.30;17.20;;;7.60;99.90;;;;;;5009067;28;20505;-65
2024/03/12 09:35:25;;;;;;;24.40;16.50;;;7.70;99.90;;;;;;5009399;28;20557;-65
2024/03/12 09:37:53;;;;;;;18.83;15.77;;;7.70;99.90;;;;;;5010241;28;20847;-68
2024/03/12 09:40:21;;;;;;;23.60;16.43;;;7.80;99.90;;;;;;5013604;28;20519;-67
2024/03/12 09:42:52;;;;;;;19.97;16.40;;;7.80;99.90;;;;;;5013250;28;20479;-68
2024/03/12 09:45:23;;;;;;;24.73;16.37;;;7.90;99.90;;;;;;5016451;28;20983;-67
2024/03/12 09:47:52;;;;;;;19.60;16.87;;;8.00;99.90;;;;;;5018341;28;20991;-65
2024/03/12 09:50:23;;;;;;;20.80;14.83;;;8.00;99.90;;;;;;5014567;28;20492;-65
2024/03/12 09:52:53;;;;;;;19.40;15.57;;;8.10;99.90;;;;;;5008379;28;20469;-65
2024/03/12 09:55:22;;;;;;;19.33;15.20;;;8.10;99.90;;;;;;5013859;28;20950;-65
2024/03/12 09:57:51;;;;;;;19.80;16.63;;;8.10;99.90;;;;;;5010742;28;20477;-65
2024/03/12 10:00:22;;;;;;;19.60;16.40;;;8.20;99.90;;;;;;5014090;28;20488;-66
2024/03/12 10:02:52;;;;;;;20.30;16.70;;;8.30;99.90;;;;;;5011072;28;20479;-65
2024/03/12 10:05:22;;;;;;;21.87;17.33;;;8.30;99.90;;;;;;5010204;28;20973;-66
2024/03/12 10:08:07;;;;;;;20.27;16.17;;;8.40;99.90;;;;;;5010896;28;20471;-65
2024/03/12 10:10:38;;;;;;;21.07;17.93;;;8.40;99.90;;;;;;5014507;28;20583;-65
2024/03/12 10:13:08;;;;;;;24.93;17.13;;;8.50;99.90;;;;;;5007309;28;20492;-66
2024/03/12 10:15:37;;;;;;;21.93;16.87;;;8.60;99.90;;;;;;5014087;28;20899;-65
2024/03/12 10:18:07;;;;;;;20.47;17.87;;;8.60;99.90;;;;;;5016153;28;20469;-66
2024/03/12 10:20:46;;;;;;;19.70;16.20;;;8.60;99.90;;;;;;5015610;28;21303;-66
2024/03/12 10:23:15;;;;;;;23.77;17.80;;;8.60;99.90;;;;;;5020757;28;20476;-66
2024/03/12 10:25:45;;;;;;;23.20;16.90;;;8.70;99.90;;;;;;5021653;28;20499;-65
2024/03/12 10:28:18;;;;;;;24.00;17.23;;;8.80;99.90;;;;;;5014195;28;20498;-65
2024/03/12 10:30:46;;;;;;;21.33;16.20;;;8.80;99.90;;;;;;5020073;28;20573;-65
2024/03/12 10:33:18;;;;;;;21.10;16.43;;;8.90;99.90;;;;;;5022384;28;20480;-65
2024/03/12 10:35:46;;;;;;;21.23;17.00;;;8.90;99.90;;;;;;5015465;28;20467;-66
2024/03/12 10:38:25;;;;;;;20.13;17.23;;;8.90;99.90;;;;;;5015531;28;20589;-66
2024/03/12 10:40:55;;;;;;;22.00;17.33;;;8.90;99.90;;;;;;5018629;28;20576;-65
2024/03/12 10:43:25;;;;;;;20.93;17.50;;;9.00;99.90;;;;;;5018812;28;20498;-65
2024/03/12 10:45:54;;;;;;;21.57;16.97;;;9.00;99.90;;;;;;5016278;28;21032;-65
2024/03/12 10:48:25;;;;;;;24.80;17.93;;;9.00;99.90;;;;;;5013979;28;20504;-66
2024/03/12 10:50:56;;;;;;;21.70;17.80;;;9.10;99.90;;;;;;5014449;28;20488;-66
2024/03/12 10:53:24;;;;;;;22.37;17.70;;;9.10;99.90;;;;;;5012316;28;20580;-66
2024/03/12 10:55:57;;;;;;;23.53;18.50;;;9.20;99.90;;;;;;5017105;28;20487;-65
2024/03/12 10:58:27;;;;;;;25.00;19.10;;;9.30;99.90;;;;;;5016420;28;20989;-67
2024/03/12 11:00:56;;;;;;;24.57;19.97;;;9.50;99.90;;;;;;5019772;28;20490;-67
2024/03/12 11:03:27;;;;;;;25.60;20.63;;;9.60;99.90;;;;;;5014111;28;20480;-68
2024/03/12 11:05:57;;;;;;;28.47;21.00;;;9.80;99.90;;;;;;5019156;28;20487;-68
2024/03/12 11:08:27;;;;;;;32.83;22.13;;;9.90;99.90;;;;;;5021663;28;20474;-68
2024/03/12 11:10:56;;;;;;;29.10;22.63;;;10.10;99.90;;;;;;5015818;28;20505;-67
2024/03/12 11:13:24;;;;;;;25.93;20.93;;;10.30;99.90;;;;;;5015290;28;20487;-68
2024/03/12 11:15:56;;;;;;;31.40;21.87;;;10.50;99.90;;;;;;5016448;28;20474;-68
2024/03/12 11:18:35;;;;;;;29.47;21.47;;;10.60;99.90;;;;;;5015825;28;20474;-68
2024/03/12 11:21:04;;;;;;;32.87;22.13;;;10.80;99.90;;;;;;5017724;28;20511;-69
2024/03/12 11:23:32;;;;;;;29.10;22.03;;;10.90;99.90;;;;;;5014278;28;21218;-67
2024/03/12 11:26:07;;;;;;;27.53;21.47;;;11.00;99.90;;;;;;5016519;28;21081;-69
2024/03/12 11:28:48;;;;;;;28.80;22.50;;;11.10;99.90;;;;;;5017344;28;20474;-68
2024/03/12 11:31:18;;;;;;;33.87;22.27;;;11.10;99.90;;;;;;5021210;28;20504;-68
2024/03/12 11:33:51;;;;;;;28.70;21.77;;;11.10;99.90;;;;;;5020818;28;20492;-68
2024/03/12 11:36:28;;;;;;;28.97;22.60;;;11.10;99.90;;;;;;5016995;28;21103;-68
2024/03/12 11:38:59;;;;;;;29.90;23.23;;;11.20;99.90;;;;;;5019399;28;20522;-68
2024/03/12 11:42:11;;;;;;;29.83;23.47;;;11.40;99.90;;;;;;5010678;28;20486;-67
2024/03/12 11:44:48;;;;;;;29.23;24.00;;;11.40;99.90;;;;;;5017260;28;20548;-68
2024/03/12 11:47:30;;;;;;;29.30;23.40;;;11.40;99.90;;;;;;5020316;28;20529;-67
2024/03/12 11:50:01;;;;;;;32.03;26.97;;;11.30;99.90;;;;;;5015696;28;20588;-68
2024/03/12 11:52:33;;;;;;;29.37;23.23;;;11.20;99.90;;;;;;5019851;28;20476;-68
2024/03/12 11:55:03;;;;;;;28.90;23.17;;;11.10;99.90;;;;;;5013891;28;20479;-67
2024/03/12 11:57:32;;;;;;;31.00;25.40;;;11.10;99.90;;;;;;5018054;28;20580;-67
2024/03/12 12:00:00;;;;;;;29.23;23.53;;;11.10;99.90;;;;;;5019058;28;20495;-67
2024/03/12 12:02:29;;;;;;;31.70;25.20;;;11.10;99.90;;;;;;5014334;28;20897;-67
2024/03/12 12:04:57;;;;;;;29.80;23.13;;;11.10;99.90;;;;;;5014741;28;20483;-68
2024/03/12 12:07:27;;;;;;;31.77;25.40;;;11.10;99.90;;;;;;5019084;28;20467;-68
2024/03/12 12:09:56;;;;;;;31.20;26.20;;;11.10;99.90;;;;;;5016502;28;20492;-68
2024/03/12 12:12:28;;;;;;;28.93;24.47;;;11.20;99.90;;;;;;5019828;28;20467;-68
2024/03/12 12:14:57;;;;;;;30.00;24.90;;;11.10;99.90;;;;;;5015025;28;20479;-69
2024/03/12 12:17:26;;;;;;;30.67;25.40;;;11.10;99.90;;;;;;5013751;28;20495;-68
2024/03/12 12:20:13;;;;;;;29.07;23.47;;;11.20;99.90;;;;;;5014434;28;20491;-68
2024/03/12 12:22:47;;;;;;;27.00;22.60;;;11.20;99.90;;;;;;5013529;28;20965;-69
2024/03/12 12:25:18;;;;;;;27.80;23.30;;;11.30;99.90;;;;;;5015914;28;20472;-68
2024/03/12 12:27:47;;;;;;;31.83;25.70;;;11.40;99.90;;;;;;5006410;28;20500;-69
2024/03/12 12:30:19;;;;;;;31.40;25.30;;;11.40;99.90;;;;;;5012130;28;20550;-71
2024/03/12 12:32:49;;;;;;;30.90;25.60;;;11.50;99.90;;;;;;5012825;28;20534;-68
2024/03/12 12:35:20;;;;;;;34.57;27.87;;;11.50;99.90;;;;;;5011717;28;20559;-68
2024/03/12 12:37:51;;;;;;;31.53;25.50;;;11.60;99.90;;;;;;5015108;28;20479;-68
2024/03/12 12:40:20;;;;;;;33.27;25.30;;;11.70;99.90;;;;;;5015035;28;20566;-68
2024/03/12 12:42:51;;;;;;;30.23;24.90;;;11.70;99.90;;;;;;5012271;28;20496;-68
2024/03/12 12:45:19;;;;;;;29.27;25.10;;;11.80;99.90;;;;;;5012723;28;20507;-68
2024/03/12 12:47:49;;;;;;;30.50;24.20;;;11.90;99.90;;;;;;5011284;28;21356;-69
2024/03/12 12:50:31;;;;;;;29.03;25.03;;;12.00;99.90;;;;;;5011373;28;20494;-69
2024/03/12 12:53:02;;;;;;;31.37;26.40;;;12.10;99.90;;;;;;5011080;28;20477;-67
2024/03/12 12:55:31;;;;;;;33.23;26.93;;;12.10;99.90;;;;;;5006287;28;20547;-69